Time;durP1;ratioP1;P1;durP2;ratioP2;P2;SDS_P1;SDS_P2;PMS_P1;PMS_P2;Temp;Humidity;BMP_temperature;BMP_pressure;BME280_temperature;BME280_humidity;BME280_pressure;Samples;Min_cycle;Max_cycle;Signal;HPM_P1;HPM_P2
2023/03/08 00:01:12;;;;;;;7.10;4.88;;;;;;;-142.70;100.00;60390.16;4894076;29;20056;-80
2023/03/08 00:03:38;;;;;;;6.80;5.28;;;;;;;-142.70;100.00;60390.16;4887232;29;20453;-80
2023/03/08 00:06:05;;;;;;;5.53;4.68;;;;;;;-142.70;100.00;60390.16;4868910;29;20365;-80
2023/03/08 00:08:30;;;;;;;8.68;5.05;;;;;;;-142.70;100.00;60390.16;4874584;29;20028;-80
2023/03/08 00:10:56;;;;;;;8.02;4.90;;;;;;;-142.70;100.00;60390.16;4911667;29;20142;-79
2023/03/08 00:13:21;;;;;;;7.10;5.65;;;;;;;-142.70;100.00;60390.16;4897536;29;20044;-79
2023/03/08 00:15:47;;;;;;;5.28;4.78;;;;;;;-142.70;100.00;60390.16;4893563;29;20469;-80
2023/03/08 00:18:12;;;;;;;5.15;4.65;;;;;;;-142.70;100.00;60390.16;4860704;29;20584;-79
2023/03/08 00:20:37;;;;;;;7.10;5.03;;;;;;;-142.70;100.00;60390.16;4881807;29;20051;-80
2023/03/08 00:23:03;;;;;;;5.80;4.93;;;;;;;-142.70;100.00;60390.16;4878345;29;20025;-80
2023/03/08 00:25:28;;;;;;;7.95;5.20;;;;;;;-142.70;100.00;60390.16;4891297;29;20520;-79
2023/03/08 00:27:54;;;;;;;11.43;5.25;;;;;;;-142.70;100.00;60390.16;4876209;29;20110;-80
2023/03/08 00:30:20;;;;;;;7.82;5.28;;;;;;;-142.70;100.00;60390.16;4876933;29;20068;-80
2023/03/08 00:39:18;;;;;;;9.48;5.45;;;;;;;-142.70;100.00;60390.16;4885936;29;20065;-79
2023/03/08 00:44:27;;;;;;;5.78;5.18;;;;;;;-142.70;100.00;60390.16;4896631;29;20039;-79
2023/03/08 00:50:15;;;;;;;6.13;4.80;;;;;;;-142.70;100.00;60390.16;4908723;29;20055;-79
2023/03/08 00:58:08;;;;;;;6.93;4.80;;;;;;;-142.70;100.00;60390.16;4900389;29;20052;-80
2023/03/08 01:06:08;;;;;;;7.03;5.10;;;;;;;-142.70;100.00;60390.16;4921525;29;20086;-81
2023/03/08 01:08:34;;;;;;;6.55;5.30;;;;;;;-142.70;100.00;60390.16;4905200;29;20047;-80
2023/03/08 01:11:00;;;;;;;5.30;4.70;;;;;;;-142.70;100.00;60390.16;4881336;29;20035;-78
2023/03/08 01:16:16;;;;;;;;;;;;;;;-142.70;100.00;60390.16;4898506;29;20113;-80
2023/03/08 01:18:42;;;;;;;8.05;5.80;;;;;;;-142.70;100.00;60390.16;4912367;29;19919;-81
2023/03/08 01:21:07;;;;;;;4.82;4.30;;;;;;;-142.70;100.00;60390.16;4915030;29;20072;-80
2023/03/08 01:26:19;;;;;;;5.40;4.90;;;;;;;-142.70;100.00;60390.16;4901958;29;20078;-79
2023/03/08 01:28:44;;;;;;;5.65;4.32;;;;;;;-142.70;100.00;60390.16;4883590;29;20028;-79
2023/03/08 01:34:02;;;;;;;4.78;4.30;;;;;;;-142.70;100.00;60390.16;4893591;29;20143;-78
2023/03/08 01:36:27;;;;;;;5.97;4.47;;;;;;;-142.70;100.00;60390.16;4892294;29;20088;-80
2023/03/08 01:38:53;;;;;;;11.30;5.35;;;;;;;-142.70;100.00;60390.16;4891475;29;20028;-79
2023/03/08 01:41:27;;;;;;;8.35;5.32;;;;;;;-142.70;100.00;60390.16;4907398;29;20039;-79
2023/03/08 01:46:37;;;;;;;6.00;5.20;;;;;;;-142.70;100.00;60390.16;4892921;29;20091;-79
2023/03/08 01:49:29;;;;;;;6.90;6.20;;;;;;;-142.70;100.00;60390.16;4889061;29;20060;-78
2023/03/08 02:00:38;;;;;;;12.00;9.30;;;;;;;-142.70;100.00;60390.16;4892706;29;20171;-78
2023/03/08 02:03:06;;;;;;;20.27;13.50;;;;;;;-142.70;100.00;60390.16;4898642;29;20108;-78
2023/03/08 02:05:31;;;;;;;10.55;9.35;;;;;;;-142.70;100.00;60390.16;4868134;29;20028;-78
2023/03/08 02:07:57;;;;;;;14.60;8.63;;;;;;;-142.70;100.00;60390.16;4887636;29;20035;-78
2023/03/08 02:10:22;;;;;;;10.38;8.05;;;;;;;-142.70;100.00;60390.16;4884055;29;20047;-79
2023/03/08 02:12:48;;;;;;;12.82;7.30;;;;;;;-142.70;100.00;60390.16;4879376;29;20032;-79
2023/03/08 02:15:16;;;;;;;10.48;8.45;;;;;;;-142.70;100.00;60390.16;4860846;29;20024;-78
2023/03/08 02:17:42;;;;;;;7.10;6.22;;;;;;;-142.70;100.00;60390.16;4888714;29;20034;-79
2023/03/08 02:20:11;;;;;;;4.95;4.32;;;;;;;-142.70;100.00;60390.16;4888847;29;20028;-79
2023/03/08 02:22:41;;;;;;;5.40;4.40;;;;;;;-142.70;100.00;60390.16;4901178;29;20033;-78
2023/03/08 02:25:26;;;;;;;5.78;4.82;;;;;;;-142.70;100.00;60390.16;4872544;29;20277;-78
2023/03/08 02:27:53;;;;;;;8.25;6.05;;;;;;;-142.70;100.00;60390.16;4871637;29;20428;-78
2023/03/08 02:30:28;;;;;;;7.35;4.13;;;;;;;-142.70;100.00;60390.16;4892540;29;20095;-78
2023/03/08 02:32:54;;;;;;;5.70;4.22;;;;;;;-142.70;100.00;60390.16;4887146;29;20032;-78
2023/03/08 02:38:22;;;;;;;6.95;4.38;;;;;;;-142.70;100.00;60390.16;4895201;29;20326;-79
2023/03/08 02:44:29;;;;;;;5.10;4.45;;;;;;;-142.70;100.00;60390.16;4890284;29;20047;-78
2023/03/08 02:49:38;;;;;;;5.15;4.43;;;;;;;-142.70;100.00;60390.16;4894957;29;20039;-79
2023/03/08 02:52:40;;;;;;;8.20;4.50;;;;;;;-142.70;100.00;60390.16;4906826;29;20036;-78
2023/03/08 02:55:07;;;;;;;6.95;5.18;;;;;;;-142.70;100.00;60390.16;4907084;29;20036;-78
2023/03/08 02:57:33;;;;;;;4.88;4.10;;;;;;;-142.70;100.00;60390.16;4892203;29;20040;-79
2023/03/08 02:59:58;;;;;;;5.32;3.17;;;;;;;-142.70;100.00;60390.16;4894788;29;20070;-79
2023/03/08 03:05:11;;;;;;;7.88;4.03;;;;;;;-142.70;100.00;60390.16;4897576;29;20099;-79
2023/03/08 03:07:38;;;;;;;5.35;4.18;;;;;;;-142.70;100.00;60390.16;4892058;29;20119;-78
2023/03/08 03:13:25;;;;;;;7.82;5.18;;;;;;;-142.70;100.00;60390.16;4892223;29;20361;-78
2023/03/08 03:15:51;;;;;;;5.68;3.95;;;;;;;-142.70;100.00;60390.16;4894072;29;20028;-79
2023/03/08 03:21:19;;;;;;;4.82;4.30;;;;;;;-142.70;100.00;60390.16;4911043;29;20042;-79
2023/03/08 03:23:45;;;;;;;7.35;4.93;;;;;;;-142.70;100.00;60390.16;4880518;29;20032;-79
2023/03/08 03:29:15;;;;;;;7.72;4.78;;;;;;;-142.70;100.00;60390.16;4911132;29;20111;-78
2023/03/08 03:31:40;;;;;;;11.13;6.60;;;;;;;-142.70;100.00;60390.16;4907145;29;20032;-78
2023/03/08 03:34:06;;;;;;;5.93;4.70;;;;;;;-142.70;100.00;60390.16;4890112;29;20032;-78
2023/03/08 03:36:33;;;;;;;11.30;8.13;;;;;;;-142.70;100.00;60390.16;4876141;29;20040;-78
2023/03/08 03:38:58;;;;;;;8.68;6.50;;;;;;;-142.70;100.00;60390.16;4890306;29;20055;-79
2023/03/08 03:41:24;;;;;;;6.97;5.18;;;;;;;-142.70;100.00;60390.16;4874270;29;20076;-78
2023/03/08 03:43:50;;;;;;;7.60;6.32;;;;;;;-142.70;100.00;60390.16;4890193;29;20479;-78
2023/03/08 03:46:17;;;;;;;8.27;5.70;;;;;;;-142.70;100.00;60390.16;4889795;29;20052;-78
2023/03/08 03:48:43;;;;;;;6.22;4.35;;;;;;;-142.70;100.00;60390.16;4906740;29;20047;-79
2023/03/08 03:51:14;;;;;;;4.72;4.10;;;;;;;-142.70;100.00;60390.16;4874263;29;20502;-78
2023/03/08 03:53:40;;;;;;;5.90;4.32;;;;;;;-142.70;100.00;60390.16;4889083;29;20134;-79
2023/03/08 03:56:32;;;;;;;5.22;4.72;;;;;;;-142.70;100.00;60390.16;4890034;29;20107;-78
2023/03/08 03:58:57;;;;;;;9.48;4.75;;;;;;;-142.70;100.00;60390.16;4883624;29;20060;-78
2023/03/08 04:01:28;;;;;;;7.15;4.10;;;;;;;-142.70;100.00;60390.16;4906628;29;20056;-78
2023/03/08 04:03:54;;;;;;;6.57;4.88;;;;;;;-142.70;100.00;60390.16;4888875;29;20088;-79
2023/03/08 04:06:22;;;;;;;8.07;5.70;;;;;;;-142.70;100.00;60390.16;4906465;29;20079;-78
2023/03/08 04:08:47;;;;;;;9.52;4.80;;;;;;;-142.70;100.00;60390.16;4889329;29;20028;-78
2023/03/08 04:11:16;;;;;;;4.97;3.85;;;;;;;-142.70;100.00;60390.16;4873535;29;20051;-78
2023/03/08 04:13:41;;;;;;;5.63;3.78;;;;;;;-142.70;100.00;60390.16;4889212;29;20040;-77
2023/03/08 04:16:09;;;;;;;6.00;4.40;;;;;;;-142.70;100.00;60390.16;4871511;29;20129;-78
2023/03/08 04:18:35;;;;;;;5.38;3.92;;;;;;;-142.70;100.00;60390.16;4905796;29;20331;-77
2023/03/08 04:21:01;;;;;;;7.65;4.95;;;;;;;-142.70;100.00;60390.16;4904511;29;20043;-77
2023/03/08 04:23:26;;;;;;;7.68;5.70;;;;;;;-142.70;100.00;60390.16;4887854;29;20031;-77
2023/03/08 04:25:52;;;;;;;5.28;4.78;;;;;;;-142.70;100.00;60390.16;4871351;29;20451;-77
2023/03/08 04:28:17;;;;;;;12.82;8.55;;;;;;;-142.70;100.00;60390.16;4889068;29;20016;-79
2023/03/08 04:30:42;;;;;;;21.73;12.38;;;;;;;-142.70;100.00;60390.16;4905774;29;20078;-79
2023/03/08 04:33:08;;;;;;;16.80;11.60;;;;;;;-142.70;100.00;60390.16;4874318;29;20036;-79
2023/03/08 04:35:33;;;;;;;26.75;17.45;;;;;;;-142.70;100.00;60390.16;4872619;29;20113;-79
2023/03/08 04:37:59;;;;;;;27.92;19.38;;;;;;;-142.70;100.00;60390.16;4892226;29;20032;-79
2023/03/08 04:40:24;;;;;;;25.38;17.75;;;;;;;-142.70;100.00;60390.16;4909800;29;20048;-79
2023/03/08 04:42:50;;;;;;;49.95;29.92;;;;;;;-142.70;100.00;60390.16;4875464;29;20115;-79
2023/03/08 04:45:15;;;;;;;17.92;13.65;;;;;;;-142.70;100.00;60390.16;4876374;29;20050;-78
2023/03/08 04:47:41;;;;;;;13.48;9.77;;;;;;;-142.70;100.00;60390.16;4888587;29;20052;-79
2023/03/08 04:50:07;;;;;;;15.63;9.48;;;;;;;-142.70;100.00;60390.16;4874772;29;20520;-79
2023/03/08 04:52:32;;;;;;;19.75;12.55;;;;;;;-142.70;100.00;60390.16;4900164;29;20040;-79
2023/03/08 04:54:57;;;;;;;16.85;12.00;;;;;;;-142.70;100.00;60390.16;4871212;29;20384;-79
2023/03/08 04:57:23;;;;;;;25.83;17.17;;;;;;;-142.70;100.00;60390.16;4871960;29;20029;-79
2023/03/08 04:59:49;;;;;;;9.07;6.32;;;;;;;-142.70;100.00;60390.16;4862199;29;20180;-79
2023/03/08 05:02:16;;;;;;;8.05;5.30;;;;;;;-142.70;100.00;60390.16;4903847;29;20091;-79
2023/03/08 05:04:41;;;;;;;11.85;5.10;;;;;;;-142.70;100.00;60390.16;4906434;29;20024;-78
2023/03/08 05:07:07;;;;;;;6.38;4.85;;;;;;;-142.70;100.00;60390.16;4877872;29;20036;-78
2023/03/08 05:09:32;;;;;;;7.70;5.55;;;;;;;-142.70;100.00;60390.16;4888931;29;20034;-78
2023/03/08 05:11:58;;;;;;;6.32;5.72;;;;;;;-142.70;100.00;60390.16;4901604;29;20403;-77
2023/03/08 05:14:23;;;;;;;12.80;8.95;;;;;;;-142.70;100.00;60390.16;4886312;29;20032;-78
2023/03/08 05:16:54;;;;;;;12.95;8.60;;;;;;;-142.70;100.00;60390.16;4872672;29;20132;-78
2023/03/08 05:19:19;;;;;;;11.05;7.10;;;;;;;-142.70;100.00;60390.16;4905620;29;20035;-78
2023/03/08 05:21:45;;;;;;;6.70;5.90;;;;;;;-142.70;100.00;60390.16;4905834;29;20036;-75
2023/03/08 05:24:10;;;;;;;9.35;5.85;;;;;;;-142.70;100.00;60390.16;4888431;29;20083;-78
2023/03/08 05:26:35;;;;;;;8.40;6.88;;;;;;;-142.70;100.00;60390.16;4886083;29;20480;-78
2023/03/08 05:29:02;;;;;;;12.32;6.47;;;;;;;-142.70;100.00;60390.16;4881063;29;20028;-78
2023/03/08 05:31:28;;;;;;;9.15;5.78;;;;;;;-142.70;100.00;60390.16;4878807;29;20092;-80
2023/03/08 05:33:53;;;;;;;7.72;4.32;;;;;;;-142.70;100.00;60390.16;4885972;29;20028;-78
2023/03/08 05:36:19;;;;;;;7.53;4.93;;;;;;;-142.70;100.00;60390.16;4893525;29;20040;-78
2023/03/08 05:38:45;;;;;;;10.10;5.20;;;;;;;-142.70;100.00;60390.16;4888632;29;20032;-79
2023/03/08 05:41:13;;;;;;;8.27;5.80;;;;;;;-142.70;100.00;60390.16;4894445;29;20028;-78
2023/03/08 05:43:38;;;;;;;5.90;4.38;;;;;;;-142.70;100.00;60390.16;4871804;29;20039;-79
2023/03/08 05:46:06;;;;;;;5.93;3.20;;;;;;;-142.70;100.00;60390.16;4894017;29;20054;-79
2023/03/08 05:48:33;;;;;;;5.57;3.72;;;;;;;-142.70;100.00;60390.16;4907832;29;20107;-79
2023/03/08 05:51:07;;;;;;;5.18;3.53;;;;;;;-142.70;100.00;60390.16;4876572;29;20040;-78
2023/03/08 05:53:33;;;;;;;4.35;3.95;;;;;;;-142.70;100.00;60390.16;4871886;29;20068;-77
2023/03/08 05:56:09;;;;;;;6.05;4.90;;;;;;;-142.70;100.00;60390.16;4909189;29;20024;-79
2023/03/08 05:58:35;;;;;;;8.15;5.10;;;;;;;-142.70;100.00;60390.16;4845655;29;20091;-78
2023/03/08 06:01:15;;;;;;;5.82;4.70;;;;;;;-142.70;100.00;60390.16;4860257;29;20466;-80
2023/03/08 06:03:41;;;;;;;8.68;4.95;;;;;;;-142.70;100.00;60390.16;4903858;29;20089;-79
2023/03/08 06:06:07;;;;;;;8.50;5.70;;;;;;;-142.70;100.00;60390.16;4858242;29;20040;-79
2023/03/08 06:08:32;;;;;;;8.35;5.35;;;;;;;-142.70;100.00;60390.16;4895134;29;20033;-78
2023/03/08 06:10:58;;;;;;;8.10;5.40;;;;;;;-142.70;100.00;60390.16;4861335;29;20040;-78
2023/03/08 06:13:24;;;;;;;6.55;5.63;;;;;;;-142.70;100.00;60390.16;4874384;29;20032;-78
2023/03/08 06:15:53;;;;;;;7.97;6.97;;;;;;;-142.70;100.00;60390.16;4888558;29;20032;-79
2023/03/08 06:18:19;;;;;;;7.93;6.00;;;;;;;-142.70;100.00;60390.16;4893548;29;20103;-78
2023/03/08 06:20:44;;;;;;;7.55;6.57;;;;;;;-142.70;100.00;60390.16;4881034;29;20119;-79
2023/03/08 06:23:09;;;;;;;7.25;6.55;;;;;;;-142.70;100.00;60390.16;4857445;29;20040;-79
2023/03/08 06:25:35;;;;;;;8.60;7.25;;;;;;;-142.70;100.00;60390.16;4858513;29;20056;-81
2023/03/08 06:28:00;;;;;;;7.32;6.30;;;;;;;-142.70;100.00;60390.16;4831897;29;20025;-80
2023/03/08 06:30:26;;;;;;;8.57;6.68;;;;;;;-142.70;100.00;60390.16;4873674;29;20020;-79
2023/03/08 06:32:51;;;;;;;13.85;8.80;;;;;;;-142.70;100.00;60390.16;4856093;29;20036;-78
2023/03/08 06:35:17;;;;;;;7.72;6.50;;;;;;;-142.70;100.00;60390.16;4863955;29;20036;-81
2023/03/08 06:37:42;;;;;;;6.07;5.57;;;;;;;-142.70;100.00;60390.16;4874364;29;20060;-81
2023/03/08 06:40:08;;;;;;;6.10;5.60;;;;;;;-142.70;100.00;60390.16;4849143;29;20074;-80
2023/03/08 06:42:34;;;;;;;7.22;5.07;;;;;;;-142.70;100.00;60390.16;4859661;29;20123;-80
2023/03/08 06:44:59;;;;;;;6.72;4.60;;;;;;;-142.70;100.00;60390.16;4852352;29;20526;-79
2023/03/08 06:47:27;;;;;;;6.30;5.57;;;;;;;-142.70;100.00;60390.16;4876664;29;20814;-79
2023/03/08 06:49:52;;;;;;;4.78;4.20;;;;;;;-142.70;100.00;60390.16;4877501;29;20526;-80
2023/03/08 06:52:18;;;;;;;5.22;3.90;;;;;;;-142.70;100.00;60390.16;4878699;29;20124;-80
2023/03/08 06:54:43;;;;;;;4.32;3.15;;;;;;;-142.70;100.00;60390.16;4867962;29;20515;-79
2023/03/08 06:57:09;;;;;;;3.75;3.45;;;;;;;-142.70;100.00;60390.16;4862147;29;20036;-79
2023/03/08 06:59:34;;;;;;;6.07;3.95;;;;;;;-142.70;100.00;60390.16;4875305;29;20040;-79
2023/03/08 07:01:59;;;;;;;6.13;3.17;;;;;;;-142.70;100.00;60390.16;4889266;29;20579;-79
2023/03/08 07:04:25;;;;;;;4.85;3.17;;;;;;;-142.70;100.00;60390.16;4892857;29;20025;-80
2023/03/08 07:06:50;;;;;;;5.68;3.50;;;;;;;-142.70;100.00;60390.16;4882295;29;20903;-79
2023/03/08 07:09:16;;;;;;;6.80;4.00;;;;;;;-142.70;100.00;60390.16;4883415;29;20503;-80
2023/03/08 07:11:42;;;;;;;6.45;3.88;;;;;;;-142.70;100.00;60390.16;4886014;29;20456;-80
2023/03/08 07:14:07;;;;;;;5.72;3.60;;;;;;;-142.70;100.00;60390.16;4886280;29;20490;-80
2023/03/08 07:16:33;;;;;;;7.88;3.53;;;;;;;-142.70;100.00;60390.16;4899746;29;20047;-80
2023/03/08 07:19:00;;;;;;;6.22;3.25;;;;;;;-142.70;100.00;60390.16;4886167;29;20964;-80
2023/03/08 07:21:26;;;;;;;;;;;;;;;-142.70;100.00;60390.16;4908364;29;20035;-79
2023/03/08 07:23:52;;;;;;;5.67;3.53;;;;;;;-142.70;100.00;60390.16;4899901;29;19923;-78
2023/03/08 07:26:17;;;;;;;3.67;3.20;;;;;;;-142.70;100.00;60390.16;4882749;29;20032;-78
2023/03/08 07:28:42;;;;;;;3.80;3.50;;;;;;;-142.70;100.00;60390.16;4883216;29;20040;-80
2023/03/08 07:31:11;;;;;;;7.63;3.88;;;;;;;-142.70;100.00;60390.16;4869790;29;20032;-80
2023/03/08 07:33:37;;;;;;;4.72;4.30;;;;;;;-142.70;100.00;60390.16;4886376;29;20059;-82
2023/03/08 07:36:03;;;;;;;4.43;3.75;;;;;;;-142.70;100.00;60390.16;4865745;29;20124;-80
2023/03/08 07:38:28;;;;;;;4.60;3.60;;;;;;;-142.70;100.00;60390.16;4883003;29;20040;-81
2023/03/08 07:40:55;;;;;;;4.20;3.17;;;;;;;-142.70;100.00;60390.16;4881156;29;20509;-81
2023/03/08 07:43:21;;;;;;;5.72;3.60;;;;;;;-142.70;100.00;60390.16;4886327;29;20035;-83
2023/03/08 07:45:47;;;;;;;5.68;3.95;;;;;;;-142.70;100.00;60390.16;4869299;29;20203;-81
2023/03/08 07:48:12;;;;;;;6.22;3.95;;;;;;;-142.70;100.00;60390.16;4881293;29;20039;-80
2023/03/08 07:50:38;;;;;;;7.28;3.50;;;;;;;-142.70;100.00;60390.16;4870505;29;20098;-81
2023/03/08 07:53:06;;;;;;;6.75;3.63;;;;;;;-142.70;100.00;60390.16;4884665;29;20070;-78
2023/03/08 07:55:32;;;;;;;4.45;3.67;;;;;;;-142.70;100.00;60390.16;4876696;29;20072;-79
2023/03/08 07:57:57;;;;;;;4.80;3.70;;;;;;;-142.70;100.00;60390.16;4880473;29;20032;-80
2023/03/08 08:00:23;;;;;;;3.88;3.30;;;;;;;-142.70;100.00;60390.16;4872732;29;20092;-81
2023/03/08 08:02:50;;;;;;;4.90;3.40;;;;;;;-142.70;100.00;60390.16;4881932;29;20041;-82
2023/03/08 08:05:15;;;;;;;4.90;3.67;;;;;;;-142.70;100.00;60390.16;4868976;29;20036;-82
2023/03/08 08:07:41;;;;;;;3.85;3.45;;;;;;;-142.70;100.00;60390.16;4903829;29;20071;-80
2023/03/08 08:10:07;;;;;;;7.03;3.40;;;;;;;-142.70;100.00;60390.16;4867923;29;20115;-81
2023/03/08 08:12:33;;;;;;;3.42;3.13;;;;;;;-142.70;100.00;60390.16;4881249;29;20084;-80
2023/03/08 08:14:58;;;;;;;5.15;3.38;;;;;;;-142.70;100.00;60390.16;4862902;29;20406;-80
2023/03/08 08:17:24;;;;;;;5.50;2.83;;;;;;;-142.70;100.00;60390.16;4865120;29;20525;-81
2023/03/08 08:19:50;;;;;;;7.25;3.10;;;;;;;-142.70;100.00;60390.16;4870648;29;20062;-81
2023/03/08 08:22:15;;;;;;;3.55;2.78;;;;;;;-142.70;100.00;60390.16;4869168;29;20479;-81
2023/03/08 08:24:41;;;;;;;5.43;3.00;;;;;;;-142.70;100.00;60390.16;4885588;29;20165;-82
2023/03/08 08:27:06;;;;;;;4.38;3.60;;;;;;;-142.70;100.00;60390.16;4860899;29;20036;-82
2023/03/08 08:29:31;;;;;;;5.78;3.10;;;;;;;-142.70;100.00;60390.16;4882912;29;20036;-81
2023/03/08 08:31:57;;;;;;;4.65;3.03;;;;;;;-142.70;100.00;60390.16;4889380;29;20032;-80
2023/03/08 08:34:23;;;;;;;8.05;2.72;;;;;;;-142.70;100.00;60390.16;4897258;29;20103;-82
2023/03/08 08:36:48;;;;;;;3.80;3.47;;;;;;;-142.70;100.00;60390.16;4885102;29;20038;-82
2023/03/08 08:39:14;;;;;;;10.98;3.92;;;;;;;-142.70;100.00;60390.16;4881498;29;20032;-84
2023/03/08 08:41:39;;;;;;;5.50;3.88;;;;;;;-142.70;100.00;60390.16;4879619;29;20840;-84
2023/03/08 08:44:05;;;;;;;3.38;2.95;;;;;;;-142.70;100.00;60390.16;4877281;29;20123;-85
2023/03/08 08:46:33;;;;;;;4.57;3.53;;;;;;;-142.70;100.00;60390.16;4886038;29;20055;-84
2023/03/08 08:48:58;;;;;;;3.40;3.10;;;;;;;-142.70;100.00;60390.16;4900981;29;20028;-86
2023/03/08 08:51:24;;;;;;;6.63;3.78;;;;;;;-142.70;100.00;60390.16;4886390;29;20136;-86
2023/03/08 08:53:49;;;;;;;3.22;2.92;;;;;;;-142.70;100.00;60390.16;4870866;29;20119;-89
2023/03/08 08:56:25;;;;;;;5.47;3.28;;;;;;;-142.70;100.00;60390.16;4861509;29;20035;-84
2023/03/08 08:58:50;;;;;;;5.60;2.88;;;;;;;-142.70;100.00;60390.16;4886165;29;20827;-83
2023/03/08 09:01:18;;;;;;;5.88;3.13;;;;;;;-142.70;100.00;60390.16;4857254;29;20035;-84
2023/03/08 09:03:45;;;;;;;4.93;2.72;;;;;;;-142.70;100.00;60390.16;4885089;29;20036;-84
2023/03/08 09:06:11;;;;;;;4.95;2.97;;;;;;;-142.70;100.00;60390.16;4883506;29;20040;-82
2023/03/08 09:08:37;;;;;;;2.72;2.13;;;;;;;-142.70;100.00;60390.16;4885687;29;20028;-83
2023/03/08 09:11:04;;;;;;;5.32;2.80;;;;;;;-142.70;100.00;60390.16;4868825;29;20183;-85
2023/03/08 09:13:30;;;;;;;2.80;2.47;;;;;;;-142.70;100.00;60390.16;4871620;29;20448;-83
2023/03/08 09:15:55;;;;;;;2.97;2.47;;;;;;;-142.70;100.00;60390.16;4868871;29;20594;-85
2023/03/08 09:18:21;;;;;;;5.32;2.78;;;;;;;-142.70;100.00;60390.16;4867912;29;20090;-86
2023/03/08 09:20:46;;;;;;;3.55;2.47;;;;;;;-142.70;100.00;60390.16;4882529;29;20064;-84
2023/03/08 09:23:12;;;;;;;6.00;3.40;;;;;;;-142.70;100.00;60390.16;4873748;29;20040;-85
2023/03/08 09:25:37;;;;;;;5.20;3.75;;;;;;;-142.70;100.00;60390.16;4881873;29;20508;-86
2023/03/08 09:28:03;;;;;;;6.57;4.10;;;;;;;-142.70;100.00;60390.16;4877357;29;20477;-88
2023/03/08 09:30:29;;;;;;;7.45;4.03;;;;;;;-142.70;100.00;60390.16;4876239;29;20566;-85
2023/03/08 09:32:54;;;;;;;5.57;3.80;;;;;;;-142.70;100.00;60390.16;4862202;29;20477;-90
2023/03/08 09:35:20;;;;;;;4.53;4.13;;;;;;;-142.70;100.00;60390.16;4872833;29;20036;-87
2023/03/08 09:37:45;;;;;;;3.80;3.25;;;;;;;-142.70;100.00;60390.16;4878922;29;20466;-86
2023/03/08 09:40:23;;;;;;;3.53;2.72;;;;;;;-142.70;100.00;60390.16;4878837;29;20037;-86
2023/03/08 09:42:48;;;;;;;6.13;2.97;;;;;;;-142.70;100.00;60390.16;4880404;29;20040;-86
2023/03/08 09:45:20;;;;;;;2.95;2.53;;;;;;;-142.70;100.00;60390.16;4866491;29;20486;-87
2023/03/08 09:48:03;;;;;;;5.28;3.63;;;;;;;-142.70;100.00;60390.16;4880694;29;20078;-86
2023/03/08 09:50:48;;;;;;;3.88;2.88;;;;;;;-142.70;100.00;60390.16;4890680;29;20111;-87
2023/03/08 09:53:21;;;;;;;5.32;3.65;;;;;;;-142.70;100.00;60390.16;4891755;29;20506;-87
2023/03/08 09:55:51;;;;;;;4.35;2.50;;;;;;;-142.70;100.00;60390.16;4862294;29;20052;-88
2023/03/08 09:58:20;;;;;;;4.93;3.08;;;;;;;-142.70;100.00;60390.16;4887513;29;20530;-87
2023/03/08 10:00:46;;;;;;;3.53;3.22;;;;;;;-142.70;100.00;60390.16;4894873;29;20040;-86
2023/03/08 10:03:33;;;;;;;5.68;2.90;;;;;;;-142.70;100.00;60390.16;4892888;29;20766;-88
2023/03/08 10:06:18;;;;;;;13.30;4.07;;;;;;;-142.70;100.00;60390.16;4886429;29;20499;-84
2023/03/08 10:08:45;;;;;;;5.03;3.45;;;;;;;-142.70;100.00;60390.16;4890294;29;20032;-83
2023/03/08 10:11:26;;;;;;;6.00;4.03;;;;;;;-142.70;100.00;60390.16;4892357;29;20135;-83
2023/03/08 10:13:55;;;;;;;3.53;3.17;;;;;;;-142.70;100.00;60390.16;4881141;29;20036;-81
2023/03/08 10:16:27;;;;;;;4.22;3.72;;;;;;;-142.70;100.00;60390.16;4866504;29;20038;-83
2023/03/08 10:19:14;;;;;;;5.70;3.40;;;;;;;-142.70;100.00;60390.16;4879439;29;20569;-83
2023/03/08 10:21:41;;;;;;;5.65;2.45;;;;;;;-142.70;100.00;60390.16;4880089;29;20047;-83
2023/03/08 10:24:36;;;;;;;4.22;3.22;;;;;;;-142.70;100.00;60390.16;4872458;29;20083;-83
2023/03/08 10:27:23;;;;;;;5.75;3.15;;;;;;;-142.70;100.00;60390.16;4856064;29;20143;-82
2023/03/08 10:29:50;;;;;;;2.70;2.50;;;;;;;-142.70;100.00;60390.16;4861641;29;20076;-84
2023/03/08 10:32:16;;;;;;;3.90;2.90;;;;;;;-142.70;100.00;60390.16;4871201;29;20120;-83
2023/03/08 10:34:41;;;;;;;3.83;2.90;;;;;;;-142.70;100.00;60390.16;4873899;29;20504;-83
2023/03/08 10:37:08;;;;;;;5.22;3.42;;;;;;;-142.70;100.00;60390.16;4893221;29;20044;-83
2023/03/08 10:39:35;;;;;;;4.07;3.03;;;;;;;-142.70;100.00;60390.16;4873001;29;20120;-83
2023/03/08 10:42:06;;;;;;;5.30;3.38;;;;;;;-142.70;100.00;60390.16;4875721;29;20488;-84
2023/03/08 10:44:42;;;;;;;3.53;2.88;;;;;;;-142.70;100.00;60390.16;4884535;29;20033;-83
2023/03/08 10:47:26;;;;;;;5.60;3.47;;;;;;;-142.70;100.00;60390.16;4881551;29;20621;-83
2023/03/08 10:50:04;;;;;;;6.93;3.28;;;;;;;-142.70;100.00;60390.16;4911705;29;20499;-83
2023/03/08 10:52:29;;;;;;;4.80;2.90;;;;;;;-142.70;100.00;60390.16;4893020;29;20068;-84
2023/03/08 10:55:06;;;;;;;6.63;2.97;;;;;;;-142.70;100.00;60390.16;4878262;29;20071;-83
2023/03/08 10:57:33;;;;;;;5.15;2.55;;;;;;;-142.70;100.00;60390.16;4875621;29;20044;-86
2023/03/08 11:00:10;;;;;;;4.90;2.60;;;;;;;-142.70;100.00;60390.16;4866868;29;20139;-84
2023/03/08 11:02:35;;;;;;;3.03;2.63;;;;;;;-142.70;100.00;60390.16;4878189;29;20114;-84
2023/03/08 11:05:01;;;;;;;5.82;2.95;;;;;;;-142.70;100.00;60390.16;4860039;29;20499;-87
2023/03/08 11:07:31;;;;;;;6.68;3.10;;;;;;;-142.70;100.00;60390.16;4877767;29;20577;-84
2023/03/08 11:10:31;;;;;;;4.82;3.50;;;;;;;-142.70;100.00;60390.16;4877946;29;20038;-86
2023/03/08 11:13:01;;;;;;;4.07;3.00;;;;;;;-142.70;100.00;60390.16;4837830;29;20048;-85
2023/03/08 11:15:28;;;;;;;5.20;2.90;;;;;;;-142.70;100.00;60390.16;4875726;29;20040;-83
2023/03/08 11:18:39;;;;;;;5.60;3.10;;;;;;;-142.70;100.00;60390.16;4865994;29;20032;-86
2023/03/08 11:21:29;;;;;;;4.55;3.10;;;;;;;-142.70;100.00;60390.16;4894362;29;20064;-86
2023/03/08 11:24:24;;;;;;;4.97;2.80;;;;;;;-142.70;100.00;60390.16;4880050;29;20044;-81
2023/03/08 11:27:18;;;;;;;5.90;2.80;;;;;;;-142.70;100.00;60390.16;4897441;29;20028;-85
2023/03/08 11:29:46;;;;;;;6.00;2.72;;;;;;;-142.70;100.00;60390.16;4875788;29;20530;-85
2023/03/08 11:32:50;;;;;;;5.72;3.15;;;;;;;-142.70;100.00;60390.16;4898299;29;20059;-85
2023/03/08 11:35:31;;;;;;;10.13;3.17;;;;;;;-142.70;100.00;60390.16;4896923;29;20498;-85
2023/03/08 11:38:11;;;;;;;4.90;3.40;;;;;;;-142.70;100.00;60390.16;4903297;29;20403;-88
2023/03/08 11:41:02;;;;;;;5.93;3.75;;;;;;;-142.70;100.00;60390.16;4871633;29;20039;-87
2023/03/08 11:43:54;;;;;;;8.82;3.22;;;;;;;-142.70;100.00;60390.16;4904781;29;20052;-87
2023/03/08 11:46:25;;;;;;;10.00;3.55;;;;;;;-142.70;100.00;60390.16;4890845;29;20155;-87
2023/03/08 11:49:06;;;;;;;4.28;3.03;;;;;;;-142.70;100.00;60390.16;4871943;29;20111;-87
2023/03/08 11:51:37;;;;;;;5.22;2.90;;;;;;;-142.70;100.00;60390.16;4885709;29;20069;-87
2023/03/08 11:54:59;;;;;;;6.13;2.95;;;;;;;-142.70;100.00;60390.16;4902799;29;20474;-84
2023/03/08 11:57:28;;;;;;;3.90;3.50;;;;;;;-142.70;100.00;60390.16;4789527;29;20034;-86
2023/03/08 12:00:08;;;;;;;5.75;4.20;;;;;;;-142.70;100.00;60390.16;4864389;29;20643;-86
2023/03/08 12:02:36;;;;;;;3.60;2.80;;;;;;;-142.70;100.00;60390.16;4885546;29;20052;-86
2023/03/08 12:05:26;;;;;;;4.43;2.92;;;;;;;-142.70;100.00;60390.16;4900306;29;20040;-86
2023/03/08 12:08:09;;;;;;;6.75;2.80;;;;;;;-142.70;100.00;60390.16;4880657;29;20048;-87
2023/03/08 12:10:35;;;;;;;4.13;2.45;;;;;;;-142.70;100.00;60390.16;4886945;29;20044;-86
2023/03/08 12:13:39;;;;;;;3.97;2.97;;;;;;;-142.70;100.00;60390.16;4895245;29;20039;-86
2023/03/08 12:16:35;;;;;;;5.18;2.45;;;;;;;-142.70;100.00;60390.16;4867432;29;20661;-85
2023/03/08 12:19:25;;;;;;;3.17;2.45;;;;;;;-142.70;100.00;60390.16;4886986;29;20082;-87
2023/03/08 12:22:15;;;;;;;5.95;2.25;;;;;;;-142.70;100.00;60390.16;4863322;29;20519;-85
2023/03/08 12:24:44;;;;;;;2.70;2.08;;;;;;;-142.70;100.00;60390.16;4894126;29;20192;-85